sensor_id;sensor_type;location;lat;lon;timestamp;pressure;altitude;pressure_sealevel;temperature;humidity
21730;BME280;11027;51.030;13.812;2023-06-10T00:01:50;99986.13;;;22.28;70.94
21730;BME280;11027;51.030;13.812;2023-06-10T00:04:15;99990.00;;;22.27;71.03
21730;BME280;11027;51.030;13.812;2023-06-10T00:06:43;99993.56;;;22.22;71.48
21730;BME280;11027;51.030;13.812;2023-06-10T00:09:08;100000.97;;;22.16;72.00
21730;BME280;11027;51.030;13.812;2023-06-10T00:11:35;99993.75;;;22.15;71.98
21730;BME280;11027;51.030;13.812;2023-06-10T00:14:01;99999.81;;;22.12;72.02
21730;BME280;11027;51.030;13.812;2023-06-10T00:16:27;100000.88;;;22.06;71.85
21730;BME280;11027;51.030;13.812;2023-06-10T00:18:52;99998.03;;;22.01;72.31
21730;BME280;11027;51.030;13.812;2023-06-10T00:21:17;100003.53;;;21.96;72.77
21730;BME280;11027;51.030;13.812;2023-06-10T00:23:44;100004.88;;;21.93;73.17
21730;BME280;11027;51.030;13.812;2023-06-10T00:26:09;100005.66;;;21.89;73.27
21730;BME280;11027;51.030;13.812;2023-06-10T00:28:35;100009.78;;;21.86;73.67
21730;BME280;11027;51.030;13.812;2023-06-10T00:31:00;100016.13;;;21.82;74.03
21730;BME280;11027;51.030;13.812;2023-06-10T00:33:26;100016.63;;;21.78;74.46
21730;BME280;11027;51.030;13.812;2023-06-10T00:35:51;100024.03;;;21.73;74.99
21730;BME280;11027;51.030;13.812;2023-06-10T00:38:16;100034.81;;;21.69;75.09
21730;BME280;11027;51.030;13.812;2023-06-10T00:40:42;100033.00;;;21.58;75.62
21730;BME280;11027;51.030;13.812;2023-06-10T00:43:07;100048.13;;;21.50;76.32
21730;BME280;11027;51.030;13.812;2023-06-10T00:45:33;100052.19;;;21.43;76.04
21730;BME280;11027;51.030;13.812;2023-06-10T00:47:59;100054.88;;;21.37;76.33
21730;BME280;11027;51.030;13.812;2023-06-10T00:50:25;100053.44;;;21.35;76.61
21730;BME280;11027;51.030;13.812;2023-06-10T00:52:50;100060.66;;;21.36;76.08
21730;BME280;11027;51.030;13.812;2023-06-10T00:55:16;100063.66;;;21.34;76.10
21730;BME280;11027;51.030;13.812;2023-06-10T00:57:43;100067.13;;;21.25;75.37
21730;BME280;11027;51.030;13.812;2023-06-10T01:00:10;100069.66;;;21.09;74.17
21730;BME280;11027;51.030;13.812;2023-06-10T01:02:36;100074.69;;;20.95;73.19
21730;BME280;11027;51.030;13.812;2023-06-10T01:05:01;100073.94;;;20.83;72.27
21730;BME280;11027;51.030;13.812;2023-06-10T01:07:57;100083.75;;;20.74;71.89
21730;BME280;11027;51.030;13.812;2023-06-10T01:10:33;100087.50;;;20.68;71.42
21730;BME280;11027;51.030;13.812;2023-06-10T01:13:02;100087.03;;;20.71;71.66
21730;BME280;11027;51.030;13.812;2023-06-10T01:15:29;100082.56;;;20.70;71.28
21730;BME280;11027;51.030;13.812;2023-06-10T01:18:22;100089.78;;;20.71;71.31
21730;BME280;11027;51.030;13.812;2023-06-10T01:20:47;100083.44;;;20.70;71.60
21730;BME280;11027;51.030;13.812;2023-06-10T01:23:14;100088.25;;;20.63;71.33
21730;BME280;11027;51.030;13.812;2023-06-10T01:25:42;100090.78;;;20.65;71.09
21730;BME280;11027;51.030;13.812;2023-06-10T01:28:14;100084.75;;;20.68;71.25
21730;BME280;11027;51.030;13.812;2023-06-10T01:30:48;100098.00;;;20.66;71.14
21730;BME280;11027;51.030;13.812;2023-06-10T01:33:19;100093.63;;;20.70;71.27
21730;BME280;11027;51.030;13.812;2023-06-10T01:35:47;100086.44;;;20.69;70.92
21730;BME280;11027;51.030;13.812;2023-06-10T01:38:14;100085.84;;;20.67;70.97
21730;BME280;11027;51.030;13.812;2023-06-10T01:40:40;100087.91;;;20.60;70.64
21730;BME280;11027;51.030;13.812;2023-06-10T01:43:06;100089.72;;;20.54;70.57
21730;BME280;11027;51.030;13.812;2023-06-10T01:45:31;100092.25;;;20.55;70.75
21730;BME280;11027;51.030;13.812;2023-06-10T01:47:56;100091.41;;;20.55;70.83
21730;BME280;11027;51.030;13.812;2023-06-10T01:50:21;100093.34;;;20.54;71.07
21730;BME280;11027;51.030;13.812;2023-06-10T01:52:47;100097.78;;;20.55;70.52
21730;BME280;11027;51.030;13.812;2023-06-10T01:55:12;100097.19;;;20.53;70.91
21730;BME280;11027;51.030;13.812;2023-06-10T01:57:37;100097.19;;;20.53;71.23
21730;BME280;11027;51.030;13.812;2023-06-10T02:00:03;100108.25;;;20.53;71.01
21730;BME280;11027;51.030;13.812;2023-06-10T02:02:28;100112.13;;;20.52;70.82
21730;BME280;11027;51.030;13.812;2023-06-10T02:04:53;100112.59;;;20.49;71.22
21730;BME280;11027;51.030;13.812;2023-06-10T02:07:19;100121.41;;;20.46;71.59
21730;BME280;11027;51.030;13.812;2023-06-10T02:09:44;100111.94;;;20.42;71.82
21730;BME280;11027;51.030;13.812;2023-06-10T02:12:09;100118.53;;;20.41;71.90
21730;BME280;11027;51.030;13.812;2023-06-10T02:14:35;100124.56;;;20.38;72.41
21730;BME280;11027;51.030;13.812;2023-06-10T02:17:01;100114.81;;;20.35;72.89
21730;BME280;11027;51.030;13.812;2023-06-10T02:19:26;100114.47;;;20.32;73.34
21730;BME280;11027;51.030;13.812;2023-06-10T02:21:52;100120.97;;;20.26;73.55
21730;BME280;11027;51.030;13.812;2023-06-10T02:24:17;100117.63;;;20.24;73.53
21730;BME280;11027;51.030;13.812;2023-06-10T02:26:43;100117.78;;;20.17;73.77
21730;BME280;11027;51.030;13.812;2023-06-10T02:29:08;100123.69;;;20.09;73.96
21730;BME280;11027;51.030;13.812;2023-06-10T02:31:33;100119.72;;;20.05;74.41
21730;BME280;11027;51.030;13.812;2023-06-10T02:34:01;100126.84;;;20.01;74.57
21730;BME280;11027;51.030;13.812;2023-06-10T02:36:26;100125.41;;;19.98;74.82
21730;BME280;11027;51.030;13.812;2023-06-10T02:38:52;100126.47;;;19.97;74.99
21730;BME280;11027;51.030;13.812;2023-06-10T02:41:17;100129.75;;;19.94;74.93
21730;BME280;11027;51.030;13.812;2023-06-10T02:43:43;100128.56;;;19.90;75.07
21730;BME280;11027;51.030;13.812;2023-06-10T02:46:08;100135.38;;;19.87;75.05
21730;BME280;11027;51.030;13.812;2023-06-10T02:48:40;100134.19;;;19.83;75.45
21730;BME280;11027;51.030;13.812;2023-06-10T02:51:06;100123.13;;;19.83;74.88
21730;BME280;11027;51.030;13.812;2023-06-10T02:53:31;100121.09;;;19.78;75.09
21730;BME280;11027;51.030;13.812;2023-06-10T02:55:57;100120.50;;;19.76;76.03
21730;BME280;11027;51.030;13.812;2023-06-10T02:58:22;100116.09;;;19.75;75.61
21730;BME280;11027;51.030;13.812;2023-06-10T03:00:47;100126.38;;;19.68;75.80
21730;BME280;11027;51.030;13.812;2023-06-10T03:03:13;100119.16;;;19.67;76.35
21730;BME280;11027;51.030;13.812;2023-06-10T03:05:38;100127.44;;;19.67;76.40
21730;BME280;11027;51.030;13.812;2023-06-10T03:08:04;100123.97;;;19.60;77.03
21730;BME280;11027;51.030;13.812;2023-06-10T03:10:29;100120.63;;;19.58;77.03
21730;BME280;11027;51.030;13.812;2023-06-10T03:12:54;100130.56;;;19.59;77.56
21730;BME280;11027;51.030;13.812;2023-06-10T03:15:19;100134.44;;;19.58;77.09
21730;BME280;11027;51.030;13.812;2023-06-10T03:17:45;100135.28;;;19.58;77.24
21730;BME280;11027;51.030;13.812;2023-06-10T03:20:11;100135.50;;;19.57;77.57
21730;BME280;11027;51.030;13.812;2023-06-10T03:22:37;100143.19;;;19.55;77.78
21730;BME280;11027;51.030;13.812;2023-06-10T03:25:04;100139.00;;;19.52;77.89
21730;BME280;11027;51.030;13.812;2023-06-10T03:27:29;100130.94;;;19.51;78.13
21730;BME280;11027;51.030;13.812;2023-06-10T03:29:55;100130.09;;;19.50;78.35
21730;BME280;11027;51.030;13.812;2023-06-10T03:32:20;100133.09;;;19.49;78.62
21730;BME280;11027;51.030;13.812;2023-06-10T03:34:46;100139.97;;;19.46;79.26
21730;BME280;11027;51.030;13.812;2023-06-10T03:37:12;100138.75;;;19.42;79.23
21730;BME280;11027;51.030;13.812;2023-06-10T03:39:38;100140.09;;;19.39;79.24
21730;BME280;11027;51.030;13.812;2023-06-10T03:42:03;100140.31;;;19.38;79.34
21730;BME280;11027;51.030;13.812;2023-06-10T03:44:28;100138.03;;;19.35;79.82
21730;BME280;11027;51.030;13.812;2023-06-10T03:46:54;100152.09;;;19.33;80.05
21730;BME280;11027;51.030;13.812;2023-06-10T03:49:20;100154.59;;;19.35;80.00
21730;BME280;11027;51.030;13.812;2023-06-10T03:51:45;100142.94;;;19.33;80.26
21730;BME280;11027;51.030;13.812;2023-06-10T03:54:11;100155.91;;;19.32;80.78
21730;BME280;11027;51.030;13.812;2023-06-10T03:56:36;100155.91;;;19.32;80.58
21730;BME280;11027;51.030;13.812;2023-06-10T03:59:01;100163.59;;;19.30;80.41
21730;BME280;11027;51.030;13.812;2023-06-10T04:01:26;100158.44;;;19.34;80.19
21730;BME280;11027;51.030;13.812;2023-06-10T04:03:52;100162.53;;;19.31;80.00
21730;BME280;11027;51.030;13.812;2023-06-10T04:06:19;100156.41;;;19.29;80.25
21730;BME280;11027;51.030;13.812;2023-06-10T04:08:47;100168.28;;;19.30;80.21
21730;BME280;11027;51.030;13.812;2023-06-10T04:11:12;100167.47;;;19.29;80.21
21730;BME280;11027;51.030;13.812;2023-06-10T04:13:38;100165.75;;;19.28;80.19
21730;BME280;11027;51.030;13.812;2023-06-10T04:16:03;100175.16;;;19.27;79.79
21730;BME280;11027;51.030;13.812;2023-06-10T04:18:28;100172.38;;;19.27;79.68
21730;BME280;11027;51.030;13.812;2023-06-10T04:20:54;100172.50;;;19.32;79.48
21730;BME280;11027;51.030;13.812;2023-06-10T04:23:19;100171.16;;;19.35;79.47
21730;BME280;11027;51.030;13.812;2023-06-10T04:25:44;100171.16;;;19.35;79.35
21730;BME280;11027;51.030;13.812;2023-06-10T04:28:10;100170.94;;;19.36;79.06
21730;BME280;11027;51.030;13.812;2023-06-10T04:30:35;100181.53;;;19.39;78.96
21730;BME280;11027;51.030;13.812;2023-06-10T04:33:00;100175.50;;;19.43;78.89
21730;BME280;11027;51.030;13.812;2023-06-10T04:35:25;100176.09;;;19.45;79.02
21730;BME280;11027;51.030;13.812;2023-06-10T04:37:54;100173.59;;;19.43;79.41
21730;BME280;11027;51.030;13.812;2023-06-10T04:40:19;100168.91;;;19.44;79.85
21730;BME280;11027;51.030;13.812;2023-06-10T04:42:44;100173.25;;;19.39;80.30
21730;BME280;11027;51.030;13.812;2023-06-10T04:45:10;100172.13;;;19.41;80.38
21730;BME280;11027;51.030;13.812;2023-06-10T04:47:35;100167.22;;;19.43;80.75
21730;BME280;11027;51.030;13.812;2023-06-10T04:50:01;100172.75;;;19.43;80.85
21730;BME280;11027;51.030;13.812;2023-06-10T04:52:27;100173.59;;;19.43;80.62
21730;BME280;11027;51.030;13.812;2023-06-10T04:54:53;100174.44;;;19.44;80.61
21730;BME280;11027;51.030;13.812;2023-06-10T04:57:18;100178.28;;;19.43;80.65
21730;BME280;11027;51.030;13.812;2023-06-10T04:59:45;100181.03;;;19.43;80.57
21730;BME280;11027;51.030;13.812;2023-06-10T05:02:10;100181.63;;;19.45;80.58
21730;BME280;11027;51.030;13.812;2023-06-10T05:04:35;100181.63;;;19.45;80.64
21730;BME280;11027;51.030;13.812;2023-06-10T05:07:01;100182.22;;;19.47;80.40
21730;BME280;11027;51.030;13.812;2023-06-10T05:09:26;100175.66;;;19.48;80.40
21730;BME280;11027;51.030;13.812;2023-06-10T05:11:51;100176.47;;;19.48;80.45
21730;BME280;11027;51.030;13.812;2023-06-10T05:14:18;100182.00;;;19.48;80.34
21730;BME280;11027;51.030;13.812;2023-06-10T05:16:45;100175.41;;;19.49;80.33
21730;BME280;11027;51.030;13.812;2023-06-10T05:19:10;100177.06;;;19.50;80.20
21730;BME280;11027;51.030;13.812;2023-06-10T05:21:36;100180.69;;;19.51;79.89
21730;BME280;11027;51.030;13.812;2023-06-10T05:24:01;100186.19;;;19.51;80.00
21730;BME280;11027;51.030;13.812;2023-06-10T05:26:27;100188.97;;;19.51;80.03
21730;BME280;11027;51.030;13.812;2023-06-10T05:28:52;100193.88;;;19.49;79.88
21730;BME280;11027;51.030;13.812;2023-06-10T05:31:18;100191.72;;;19.51;79.97
21730;BME280;11027;51.030;13.812;2023-06-10T05:33:43;100198.94;;;19.52;79.76
21730;BME280;11027;51.030;13.812;2023-06-10T05:36:08;100189.09;;;19.56;80.00
21730;BME280;11027;51.030;13.812;2023-06-10T05:38:34;100188.25;;;19.67;79.91
21730;BME280;11027;51.030;13.812;2023-06-10T05:40:59;100185.28;;;19.81;79.45
21730;BME280;11027;51.030;13.812;2023-06-10T05:43:24;100184.19;;;19.93;79.40
21730;BME280;11027;51.030;13.812;2023-06-10T05:45:49;100186.94;;;20.05;78.96
21730;BME280;11027;51.030;13.812;2023-06-10T05:48:15;100188.84;;;20.16;78.14
21730;BME280;11027;51.030;13.812;2023-06-10T05:50:40;100196.41;;;20.21;77.59
21730;BME280;11027;51.030;13.812;2023-06-10T05:53:07;100193.28;;;20.17;77.25
21730;BME280;11027;51.030;13.812;2023-06-10T05:55:40;100198.81;;;20.17;77.14
21730;BME280;11027;51.030;13.812;2023-06-10T05:58:05;100197.75;;;20.18;76.88
21730;BME280;11027;51.030;13.812;2023-06-10T06:00:30;100197.16;;;20.16;76.84
21730;BME280;11027;51.030;13.812;2023-06-10T06:02:55;100196.56;;;20.14;77.07
21730;BME280;11027;51.030;13.812;2023-06-10T06:05:22;100190.66;;;20.11;76.83
21730;BME280;11027;51.030;13.812;2023-06-10T06:07:47;100192.00;;;20.08;76.50
21730;BME280;11027;51.030;13.812;2023-06-10T06:10:12;100187.53;;;20.07;76.40
21730;BME280;11027;51.030;13.812;2023-06-10T06:12:38;100196.69;;;20.08;76.49
21730;BME280;11027;51.030;13.812;2023-06-10T06:15:03;100199.69;;;20.06;77.15
21730;BME280;11027;51.030;13.812;2023-06-10T06:17:29;100202.22;;;20.08;77.25
21730;BME280;11027;51.030;13.812;2023-06-10T06:19:54;100201.34;;;20.07;77.21
21730;BME280;11027;51.030;13.812;2023-06-10T06:22:19;100209.31;;;20.04;77.13
21730;BME280;11027;51.030;13.812;2023-06-10T06:24:47;100198.50;;;20.02;77.08
21730;BME280;11027;51.030;13.812;2023-06-10T06:27:12;100206.56;;;20.04;77.10
21730;BME280;11027;51.030;13.812;2023-06-10T06:29:37;100195.50;;;20.04;76.59
21730;BME280;11027;51.030;13.812;2023-06-10T06:32:03;100203.53;;;20.05;76.92
21730;BME280;11027;51.030;13.812;2023-06-10T06:34:28;100213.28;;;20.08;76.74
21730;BME280;11027;51.030;13.812;2023-06-10T06:36:53;100205.22;;;20.06;76.83
21730;BME280;11027;51.030;13.812;2023-06-10T06:39:18;100205.22;;;20.06;77.01
21730;BME280;11027;51.030;13.812;2023-06-10T06:41:44;100206.88;;;20.07;76.74
21730;BME280;11027;51.030;13.812;2023-06-10T06:44:09;100216.16;;;20.13;76.69
21730;BME280;11027;51.030;13.812;2023-06-10T06:46:34;100218.06;;;20.24;76.48
21730;BME280;11027;51.030;13.812;2023-06-10T06:49:00;100223.56;;;20.36;76.29
21730;BME280;11027;51.030;13.812;2023-06-10T06:51:25;100219.44;;;20.50;75.93
21730;BME280;11027;51.030;13.812;2023-06-10T06:53:50;100226.41;;;20.65;75.51
21730;BME280;11027;51.030;13.812;2023-06-10T06:56:16;100223.34;;;20.78;74.97
21730;BME280;11027;51.030;13.812;2023-06-10T06:58:41;100230.53;;;20.91;74.90
21730;BME280;11027;51.030;13.812;2023-06-10T07:01:06;100224.94;;;21.03;74.17
21730;BME280;11027;51.030;13.812;2023-06-10T07:03:32;100238.69;;;21.14;73.41
21730;BME280;11027;51.030;13.812;2023-06-10T07:05:57;100232.50;;;21.24;72.63
21730;BME280;11027;51.030;13.812;2023-06-10T07:08:22;100237.41;;;21.34;71.71
21730;BME280;11027;51.030;13.812;2023-06-10T07:10:48;100240.13;;;21.46;71.20
21730;BME280;11027;51.030;13.812;2023-06-10T07:13:14;100249.69;;;21.55;70.43
21730;BME280;11027;51.030;13.812;2023-06-10T07:15:39;100242.66;;;21.64;69.88
21730;BME280;11027;51.030;13.812;2023-06-10T07:18:04;100243.81;;;21.68;68.75
21730;BME280;11027;51.030;13.812;2023-06-10T07:20:29;100248.13;;;21.76;68.80
21730;BME280;11027;51.030;13.812;2023-06-10T07:22:55;100244.66;;;21.86;68.49
21730;BME280;11027;51.030;13.812;2023-06-10T07:25:20;100251.38;;;21.90;68.19
21730;BME280;11027;51.030;13.812;2023-06-10T07:27:45;100252.56;;;21.94;67.92
21730;BME280;11027;51.030;13.812;2023-06-10T07:30:11;100256.06;;;21.89;67.67
21730;BME280;11027;51.030;13.812;2023-06-10T07:32:36;100253.88;;;21.91;67.50
21730;BME280;11027;51.030;13.812;2023-06-10T07:35:02;100263.66;;;21.94;67.43
21730;BME280;11027;51.030;13.812;2023-06-10T07:37:27;100259.78;;;21.95;67.37
21730;BME280;11027;51.030;13.812;2023-06-10T07:39:52;100260.28;;;21.92;67.28
21730;BME280;11027;51.030;13.812;2023-06-10T07:42:18;100266.44;;;21.94;67.21
21730;BME280;11027;51.030;13.812;2023-06-10T07:44:43;100258.75;;;22.01;67.20
21730;BME280;11027;51.030;13.812;2023-06-10T07:47:08;100257.56;;;22.14;67.20
21730;BME280;11027;51.030;13.812;2023-06-10T07:49:33;100270.16;;;22.22;66.48
21730;BME280;11027;51.030;13.812;2023-06-10T07:51:59;100261.56;;;22.23;66.08
21730;BME280;11027;51.030;13.812;2023-06-10T07:54:24;100271.00;;;22.22;65.54
21730;BME280;11027;51.030;13.812;2023-06-10T07:56:49;100261.22;;;22.20;65.24
21730;BME280;11027;51.030;13.812;2023-06-10T07:59:17;100255.44;;;22.21;65.11
21730;BME280;11027;51.030;13.812;2023-06-10T08:01:42;100263.59;;;22.28;65.01
21730;BME280;11027;51.030;13.812;2023-06-10T08:04:08;100269.56;;;22.36;64.52
21730;BME280;11027;51.030;13.812;2023-06-10T08:06:33;100265.78;;;22.43;64.23
21730;BME280;11027;51.030;13.812;2023-06-10T08:08:58;100267.75;;;22.47;64.11
21730;BME280;11027;51.030;13.812;2023-06-10T08:11:25;100267.25;;;22.50;63.76
21730;BME280;11027;51.030;13.812;2023-06-10T08:13:53;100261.72;;;22.50;63.71
21730;BME280;11027;51.030;13.812;2023-06-10T08:16:18;100270.22;;;22.44;64.13
21730;BME280;11027;51.030;13.812;2023-06-10T08:18:43;100266.38;;;22.28;64.13
21730;BME280;11027;51.030;13.812;2023-06-10T08:21:08;100267.56;;;22.15;64.46
21730;BME280;11027;51.030;13.812;2023-06-10T08:23:34;100277.72;;;22.09;64.68
21730;BME280;11027;51.030;13.812;2023-06-10T08:25:59;100271.00;;;22.05;64.83
21730;BME280;11027;51.030;13.812;2023-06-10T08:28:24;100283.47;;;22.03;64.92
21730;BME280;11027;51.030;13.812;2023-06-10T08:30:50;100275.41;;;22.01;65.26
21730;BME280;11027;51.030;13.812;2023-06-10T08:33:15;100275.97;;;22.03;65.55
21730;BME280;11027;51.030;13.812;2023-06-10T08:35:40;100279.91;;;22.07;65.92
21730;BME280;11027;51.030;13.812;2023-06-10T08:38:05;100277.25;;;22.12;66.08
21730;BME280;11027;51.030;13.812;2023-06-10T08:40:32;100273.28;;;22.25;65.87
21730;BME280;11027;51.030;13.812;2023-06-10T08:43:13;100263.25;;;22.41;65.47
21730;BME280;11027;51.030;13.812;2023-06-10T08:45:42;100258.41;;;22.53;65.08
21730;BME280;11027;51.030;13.812;2023-06-10T08:48:14;100255.25;;;22.67;64.87
21730;BME280;11027;51.030;13.812;2023-06-10T08:50:41;100261.50;;;22.79;64.56
21730;BME280;11027;51.030;13.812;2023-06-10T08:53:07;100263.88;;;22.92;64.11
21730;BME280;11027;51.030;13.812;2023-06-10T08:55:36;100260.16;;;23.04;63.70
21730;BME280;11027;51.030;13.812;2023-06-10T08:58:03;100262.56;;;23.22;63.21
21730;BME280;11027;51.030;13.812;2023-06-10T09:00:29;100254.38;;;23.38;63.01
21730;BME280;11027;51.030;13.812;2023-06-10T09:02:56;100255.63;;;23.52;62.72
21730;BME280;11027;51.030;13.812;2023-06-10T09:05:22;100249.63;;;23.65;62.16
21730;BME280;11027;51.030;13.812;2023-06-10T09:07:48;100245.31;;;23.80;62.32
21730;BME280;11027;51.030;13.812;2023-06-10T09:10:13;100246.53;;;23.94;62.36
21730;BME280;11027;51.030;13.812;2023-06-10T09:12:38;100250.47;;;24.03;61.60
21730;BME280;11027;51.030;13.812;2023-06-10T09:15:05;100244.13;;;24.08;60.90
21730;BME280;11027;51.030;13.812;2023-06-10T09:17:31;100239.66;;;24.07;60.77
21730;BME280;11027;51.030;13.812;2023-06-10T09:19:56;100238.81;;;24.06;60.71
21730;BME280;11027;51.030;13.812;2023-06-10T09:22:23;100238.28;;;24.09;60.67
21730;BME280;11027;51.030;13.812;2023-06-10T09:24:48;100241.09;;;24.14;60.43
21730;BME280;11027;51.030;13.812;2023-06-10T09:27:14;100248.69;;;24.24;60.44
21730;BME280;11027;51.030;13.812;2023-06-10T09:29:47;100244.81;;;24.30;60.10
21730;BME280;11027;51.030;13.812;2023-06-10T09:32:13;100239.81;;;24.38;59.88
21730;BME280;11027;51.030;13.812;2023-06-10T09:34:39;100246.81;;;24.45;59.91
21730;BME280;11027;51.030;13.812;2023-06-10T09:37:04;100246.59;;;24.52;59.66
21730;BME280;11027;51.030;13.812;2023-06-10T09:39:30;100244.41;;;24.59;59.24
21730;BME280;11027;51.030;13.812;2023-06-10T09:41:55;100240.81;;;24.64;59.14
21730;BME280;11027;51.030;13.812;2023-06-10T09:44:21;100242.50;;;24.70;59.20
21730;BME280;11027;51.030;13.812;2023-06-10T09:46:49;100244.19;;;24.71;59.23
21730;BME280;11027;51.030;13.812;2023-06-10T09:49:18;100238.59;;;24.61;58.51
21730;BME280;11027;51.030;13.812;2023-06-10T09:51:52;100236.81;;;24.49;58.07
21730;BME280;11027;51.030;13.812;2023-06-10T09:54:18;100240.13;;;24.41;58.34
21730;BME280;11027;51.030;13.812;2023-06-10T09:56:47;100244.56;;;24.37;58.32
21730;BME280;11027;51.030;13.812;2023-06-10T09:59:12;100240.69;;;24.38;58.28
21730;BME280;11027;51.030;13.812;2023-06-10T10:01:38;100244.09;;;24.50;58.49
21730;BME280;11027;51.030;13.812;2023-06-10T10:04:03;100241.38;;;24.66;57.98
21730;BME280;11027;51.030;13.812;2023-06-10T10:06:28;100232.50;;;24.84;57.72
21730;BME280;11027;51.030;13.812;2023-06-10T10:08:54;100224.50;;;25.03;56.89
21730;BME280;11027;51.030;13.812;2023-06-10T10:11:21;100230.91;;;25.14;56.27
21730;BME280;11027;51.030;13.812;2023-06-10T10:13:51;100226.78;;;25.22;56.17
21730;BME280;11027;51.030;13.812;2023-06-10T10:16:19;100230.38;;;25.17;56.02
21730;BME280;11027;51.030;13.812;2023-06-10T10:18:49;100227.56;;;25.12;55.75
21730;BME280;11027;51.030;13.812;2023-06-10T10:21:17;100230.34;;;24.97;55.78
21730;BME280;11027;51.030;13.812;2023-06-10T10:26:16;100241.94;;;24.63;56.97
21730;BME280;11027;51.030;13.812;2023-06-10T10:28:50;100233.81;;;24.51;57.63
21730;BME280;11027;51.030;13.812;2023-06-10T10:31:18;100241.31;;;24.50;58.03
21730;BME280;11027;51.030;13.812;2023-06-10T10:33:59;100234.66;;;24.62;57.91
21730;BME280;11027;51.030;13.812;2023-06-10T10:36:26;100241.44;;;24.86;57.84
21730;BME280;11027;51.030;13.812;2023-06-10T10:38:52;100236.22;;;25.15;57.17
21730;BME280;11027;51.030;13.812;2023-06-10T10:41:18;100229.88;;;25.41;56.75
21730;BME280;11027;51.030;13.812;2023-06-10T10:43:46;100227.38;;;25.60;56.19
21730;BME280;11027;51.030;13.812;2023-06-10T10:46:13;100222.63;;;25.70;55.61
21730;BME280;11027;51.030;13.812;2023-06-10T10:48:40;100229.31;;;25.80;54.47
21730;BME280;11027;51.030;13.812;2023-06-10T10:51:11;100225.41;;;25.86;53.28
21730;BME280;11027;51.030;13.812;2023-06-10T10:53:37;100231.00;;;25.96;52.18
21730;BME280;11027;51.030;13.812;2023-06-10T10:56:14;100228.75;;;25.98;50.78
21730;BME280;11027;51.030;13.812;2023-06-10T10:58:39;100222.34;;;25.98;50.35
21730;BME280;11027;51.030;13.812;2023-06-10T11:01:12;100220.34;;;26.03;50.30
21730;BME280;11027;51.030;13.812;2023-06-10T11:03:44;100219.81;;;26.06;50.32
21730;BME280;11027;51.030;13.812;2023-06-10T11:06:14;100217.03;;;26.06;49.18
21730;BME280;11027;51.030;13.812;2023-06-10T11:11:25;100219.78;;;26.17;49.45
21730;BME280;11027;51.030;13.812;2023-06-10T11:16:29;100219.75;;;26.27;49.82
21730;BME280;11027;51.030;13.812;2023-06-10T11:18:55;100199.66;;;26.30;50.04
21730;BME280;11027;51.030;13.812;2023-06-10T11:21:20;100197.13;;;26.28;49.78
21730;BME280;11027;51.030;13.812;2023-06-10T11:23:47;100191.28;;;26.20;48.95
21730;BME280;11027;51.030;13.812;2023-06-10T11:31:26;100195.63;;;26.57;49.35
21730;BME280;11027;51.030;13.812;2023-06-10T11:34:12;100196.44;;;26.67;49.04
21730;BME280;11027;51.030;13.812;2023-06-10T11:36:40;100181.25;;;26.84;49.54
21730;BME280;11027;51.030;13.812;2023-06-10T11:39:06;100189.22;;;27.06;49.34
21730;BME280;11027;51.030;13.812;2023-06-10T11:41:32;100180.19;;;27.19;48.79
21730;BME280;11027;51.030;13.812;2023-06-10T11:44:03;100185.72;;;27.29;49.05
21730;BME280;11027;51.030;13.812;2023-06-10T11:46:29;100175.63;;;27.33;49.25
21730;BME280;11027;51.030;13.812;2023-06-10T11:48:57;100178.97;;;27.36;48.97
21730;BME280;11027;51.030;13.812;2023-06-10T11:51:25;100173.03;;;27.42;48.91
21730;BME280;11027;51.030;13.812;2023-06-10T11:53:52;100165.97;;;27.50;48.10
21730;BME280;11027;51.030;13.812;2023-06-10T11:56:28;100173.16;;;27.61;47.82
21730;BME280;11027;51.030;13.812;2023-06-10T11:58:55;100169.84;;;27.54;46.16
21730;BME280;11027;51.030;13.812;2023-06-10T12:01:22;100174.44;;;27.40;45.59
21730;BME280;11027;51.030;13.812;2023-06-10T12:04:09;100182.88;;;27.34;45.71
21730;BME280;11027;51.030;13.812;2023-06-10T12:06:45;100169.34;;;27.47;45.19
21730;BME280;11027;51.030;13.812;2023-06-10T12:11:43;100172.69;;;27.78;45.16
21730;BME280;11027;51.030;13.812;2023-06-10T12:14:09;100166.72;;;27.90;44.63
21730;BME280;11027;51.030;13.812;2023-06-10T12:16:34;100166.72;;;27.90;43.85
21730;BME280;11027;51.030;13.812;2023-06-10T12:19:04;100167.03;;;27.83;44.02
21730;BME280;11027;51.030;13.812;2023-06-10T12:21:32;100168.13;;;27.87;43.98
21730;BME280;11027;51.030;13.812;2023-06-10T12:24:09;100170.53;;;27.99;43.53
21730;BME280;11027;51.030;13.812;2023-06-10T12:26:36;100164.22;;;28.12;43.43
21730;BME280;11027;51.030;13.812;2023-06-10T12:29:12;100145.16;;;28.15;42.82
21730;BME280;11027;51.030;13.812;2023-06-10T12:32:02;100139.28;;;28.35;42.99
21730;BME280;11027;51.030;13.812;2023-06-10T12:36:58;100133.13;;;28.76;42.55
21730;BME280;11027;51.030;13.812;2023-06-10T12:39:23;100138.00;;;28.89;42.06
21730;BME280;11027;51.030;13.812;2023-06-10T12:41:49;100141.63;;;29.09;41.60
21730;BME280;11027;51.030;13.812;2023-06-10T12:44:16;100137.53;;;29.20;41.35
21730;BME280;11027;51.030;13.812;2023-06-10T12:46:41;100134.88;;;29.29;40.25
21730;BME280;11027;51.030;13.812;2023-06-10T12:49:06;100131.56;;;29.41;39.92
21730;BME280;11027;51.030;13.812;2023-06-10T12:51:32;100120.59;;;29.58;39.88
21730;BME280;11027;51.030;13.812;2023-06-10T12:53:59;100123.72;;;29.70;39.99
21730;BME280;11027;51.030;13.812;2023-06-10T12:56:24;100127.31;;;29.90;39.50